createdAt,value
2023-01-21T00:00:31.201Z,-0.62
2023-01-21T00:05:34.334Z,-0.51
2023-01-21T00:10:36.060Z,-0.42
2023-01-21T00:15:37.808Z,-0.20
2023-01-21T00:20:40.872Z,-0.08
2023-01-21T00:25:42.576Z,0.06
2023-01-21T00:30:44.774Z,0.16
2023-01-21T00:35:50.641Z,0.19
2023-01-21T00:40:52.374Z,0.26
2023-01-21T00:45:54.136Z,0.30
2023-01-21T00:51:00.452Z,0.34
2023-01-21T00:56:03.128Z,0.35
2023-01-21T01:01:06.049Z,0.45
2023-01-21T01:06:10.212Z,0.49
2023-01-21T01:11:12.417Z,0.41
2023-01-21T01:16:14.888Z,0.46
2023-01-21T01:21:18.752Z,0.64
2023-01-21T01:26:20.909Z,0.77
2023-01-21T01:31:22.752Z,0.78
2023-01-21T01:36:25.877Z,0.80
2023-01-21T01:41:29.405Z,0.86
2023-01-21T01:46:31.873Z,0.93
2023-01-21T01:51:41.283Z,1.07
2023-01-21T01:56:43.782Z,1.21
2023-01-21T02:01:45.490Z,1.21
2023-01-21T02:06:48.636Z,1.28
2023-01-21T02:11:50.267Z,1.31
2023-01-21T02:17:04.863Z,1.37
2023-01-21T02:22:10.488Z,1.42
2023-01-21T02:27:37.311Z,1.44
2023-01-21T02:33:18.261Z,1.33
2023-01-21T02:38:22.851Z,1.38
2023-01-21T02:43:30.074Z,1.31
2023-01-21T02:48:34.701Z,1.35
2023-01-21T02:53:36.378Z,1.45
2023-01-21T02:58:40.007Z,1.46
2023-01-21T03:04:06.009Z,1.51
2023-01-21T03:09:16.096Z,1.50
2023-01-21T03:14:39.679Z,1.53
2023-01-21T03:19:44.995Z,1.50
2023-01-21T03:24:48.296Z,1.49
2023-01-21T03:29:50.678Z,1.51
2023-01-21T03:34:54.186Z,1.53
2023-01-21T03:40:00.224Z,1.57
2023-01-21T03:45:01.951Z,1.55
2023-01-21T03:50:07.045Z,1.56
2023-01-21T03:55:09.028Z,1.55
2023-01-21T04:00:12.232Z,1.47
2023-01-21T04:05:15.480Z,1.46
2023-01-21T04:10:17.809Z,1.52
2023-01-21T04:15:19.644Z,1.52
2023-01-21T04:20:22.719Z,1.42
2023-01-21T04:25:24.521Z,1.56
2023-01-21T04:30:26.224Z,1.52
2023-01-21T04:35:29.265Z,1.58
2023-01-21T04:40:31.025Z,1.61
2023-01-21T04:45:32.715Z,1.63
2023-01-21T04:50:35.927Z,1.66
2023-01-21T04:55:37.609Z,1.65
2023-01-21T05:00:39.307Z,1.66
2023-01-21T05:05:42.358Z,1.69
2023-01-21T05:10:44.068Z,1.56
2023-01-21T05:15:45.791Z,1.54
2023-01-21T05:20:48.792Z,1.46
2023-01-21T05:25:50.511Z,1.33
2023-01-21T05:30:52.251Z,1.18
2023-01-21T05:35:55.316Z,1.18
2023-01-21T05:40:57.305Z,1.12
2023-01-21T05:45:59.126Z,1.07
2023-01-21T05:51:02.227Z,1.05
2023-01-21T05:56:04.573Z,1.04
2023-01-21T06:01:06.249Z,1.15
2023-01-21T06:06:09.504Z,1.16
2023-01-21T06:11:11.223Z,1.21
2023-01-21T06:16:12.932Z,1.24
2023-01-21T06:21:15.940Z,1.28
2023-01-21T06:26:17.676Z,1.30
2023-01-21T06:31:19.488Z,1.29
2023-01-21T06:36:22.925Z,1.42
2023-01-21T06:41:24.807Z,1.49
2023-01-21T06:46:26.638Z,1.53
2023-01-21T06:51:29.726Z,1.55
2023-01-21T06:56:31.506Z,1.54
2023-01-21T07:01:33.281Z,1.56
2023-01-21T07:06:36.527Z,1.56
2023-01-21T07:11:38.386Z,1.60
2023-01-21T07:16:40.116Z,1.61
2023-01-21T07:21:43.199Z,1.64
2023-01-21T07:26:44.915Z,1.65
2023-01-21T07:31:46.713Z,1.61
2023-01-21T07:36:49.764Z,1.63
2023-01-21T07:41:51.534Z,1.67
2023-01-21T07:46:53.303Z,1.66
2023-01-21T07:51:57.613Z,1.65
2023-01-21T07:56:59.370Z,1.64
2023-01-21T08:02:01.375Z,1.66
2023-01-21T08:07:12.009Z,1.76
2023-01-21T08:12:14.742Z,1.83
2023-01-21T08:17:16.513Z,1.86
2023-01-21T08:22:19.761Z,1.92
2023-01-21T08:27:21.589Z,2.00
2023-01-21T08:32:23.393Z,2.09
2023-01-21T08:37:26.597Z,2.10
2023-01-21T08:42:28.392Z,2.09
2023-01-21T08:47:30.170Z,2.02
2023-01-21T08:52:33.252Z,1.94
2023-01-21T08:57:34.946Z,1.93
2023-01-21T09:02:36.698Z,1.95
2023-01-21T09:07:39.759Z,1.97
2023-01-21T09:12:41.603Z,2.08
2023-01-21T09:17:43.263Z,2.20
2023-01-21T09:22:46.285Z,2.38
2023-01-21T09:27:48.332Z,2.54
2023-01-21T09:32:50.159Z,2.82
2023-01-21T09:37:53.387Z,3.11
2023-01-21T09:42:55.523Z,3.56
2023-01-21T09:47:57.410Z,4.68
2023-01-21T09:53:03.158Z,5.13
2023-01-21T09:58:09.244Z,6.93
2023-01-21T10:03:18.566Z,10.08
2023-01-21T10:08:25.370Z,11.63
2023-01-21T10:13:34.422Z,9.28
2023-01-21T10:18:37.539Z,7.67
2023-01-21T10:23:43.048Z,7.06
2023-01-21T10:28:47.605Z,6.96
2023-01-21T10:33:49.309Z,6.74
2023-01-21T10:38:56.096Z,6.41
2023-01-21T10:44:00.500Z,6.12
2023-01-21T10:49:07.949Z,5.91
2023-01-21T10:54:13.935Z,5.91
2023-01-21T10:59:16.995Z,6.01
2023-01-21T11:04:20.409Z,6.27
2023-01-21T11:09:24.530Z,6.33
2023-01-21T11:14:26.266Z,6.64
2023-01-21T11:19:30.434Z,6.89
2023-01-21T11:24:42.275Z,6.81
2023-01-21T11:29:44.024Z,6.55
2023-01-21T11:34:45.945Z,6.50
2023-01-21T11:39:51.416Z,6.51
2023-01-21T11:44:54.066Z,6.43
2023-01-21T11:49:56.936Z,6.21
2023-01-21T11:55:00.097Z,6.17
2023-01-21T12:00:07.664Z,6.25
2023-01-21T12:05:15.628Z,6.06
2023-01-21T12:10:29.982Z,6.04
2023-01-21T12:15:41.338Z,5.67
2023-01-21T12:20:45.456Z,5.53
2023-01-21T12:25:52.121Z,5.30
2023-01-21T12:30:58.231Z,5.10
2023-01-21T12:36:01.115Z,4.99
2023-01-21T12:41:05.205Z,4.91
2023-01-21T12:46:10.661Z,4.91
2023-01-21T12:51:15.099Z,4.85
2023-01-21T12:56:24.007Z,4.93
2023-01-21T13:01:34.051Z,4.98
2023-01-21T13:06:52.720Z,5.02
2023-01-21T13:11:57.709Z,5.09
2023-01-21T13:17:01.044Z,4.97
2023-01-21T13:22:04.739Z,5.14
2023-01-21T13:27:11.366Z,5.22
2023-01-21T13:32:24.200Z,5.30
2023-01-21T13:37:29.641Z,5.15
2023-01-21T13:42:40.383Z,5.20
2023-01-21T13:48:05.838Z,5.12
2023-01-21T13:53:19.642Z,5.04
2023-01-21T13:58:28.443Z,4.76
2023-01-21T14:03:31.817Z,4.73
2023-01-21T14:08:35.161Z,4.70
2023-01-21T14:13:56.060Z,4.59
2023-01-21T14:19:09.006Z,4.52
2023-01-21T14:24:16.131Z,4.44
2023-01-21T14:29:22.962Z,4.46
2023-01-21T14:34:25.670Z,4.35
2023-01-21T14:39:34.829Z,4.29
2023-01-21T14:44:40.073Z,4.26
2023-01-21T14:49:42.602Z,4.23
2023-01-21T14:54:44.532Z,4.16
2023-01-21T14:59:47.594Z,4.08
2023-01-21T15:04:52.194Z,4.16
2023-01-21T15:09:54.846Z,4.11
2023-01-21T15:14:59.174Z,4.14
2023-01-21T15:20:00.957Z,4.10
2023-01-21T15:25:20.215Z,4.05
2023-01-21T15:30:27.882Z,3.97
2023-01-21T15:35:30.755Z,3.89
2023-01-21T15:40:36.572Z,3.83
2023-01-21T15:45:42.743Z,3.72
2023-01-21T15:50:46.431Z,3.69
2023-01-21T15:56:01.693Z,3.66
2023-01-21T16:01:05.672Z,3.77
2023-01-21T16:06:10.923Z,3.76
2023-01-21T16:11:37.474Z,3.75
2023-01-21T16:16:47.025Z,3.76
2023-01-21T16:21:50.620Z,3.77
2023-01-21T16:26:52.353Z,3.77
2023-01-21T16:31:59.831Z,3.78
2023-01-21T16:37:05.054Z,3.83
2023-01-21T16:42:06.901Z,3.82
2023-01-21T16:47:14.300Z,3.86
2023-01-21T16:52:19.858Z,3.77
2023-01-21T16:57:25.559Z,3.82
2023-01-21T17:02:31.440Z,3.90
2023-01-21T17:07:34.748Z,3.89
2023-01-21T17:12:36.673Z,3.96
2023-01-21T17:17:39.664Z,3.95
2023-01-21T17:22:44.003Z,3.94
2023-01-21T17:27:45.827Z,3.92
2023-01-21T17:32:53.775Z,3.89
2023-01-21T17:37:56.483Z,3.79
2023-01-21T17:42:59.722Z,3.82
2023-01-21T17:48:13.429Z,3.83
2023-01-21T17:53:22.116Z,3.82
2023-01-21T17:58:35.468Z,3.82
2023-01-21T18:03:38.495Z,3.82
2023-01-21T18:08:40.190Z,3.85
2023-01-21T18:13:41.911Z,3.84
2023-01-21T18:18:45.045Z,3.88
2023-01-21T18:23:46.987Z,3.86
2023-01-21T18:28:48.881Z,3.85
2023-01-21T18:33:51.954Z,3.92
2023-01-21T18:38:53.676Z,3.91
2023-01-21T18:43:55.590Z,3.80
2023-01-21T18:48:58.599Z,3.82
2023-01-21T18:54:00.347Z,3.75
2023-01-21T18:59:02.106Z,3.76
2023-01-21T19:04:05.217Z,3.78
2023-01-21T19:09:20.377Z,3.79
2023-01-21T19:14:22.094Z,3.71
2023-01-21T19:19:25.138Z,3.72
2023-01-21T19:24:26.877Z,3.71
2023-01-21T19:29:28.615Z,3.76
2023-01-21T19:34:32.074Z,3.74
2023-01-21T19:39:34.459Z,3.72
2023-01-21T19:44:36.168Z,3.76
2023-01-21T19:49:39.205Z,3.85
2023-01-21T19:54:40.938Z,3.85
2023-01-21T19:59:42.659Z,3.66
2023-01-21T20:04:45.667Z,3.63
2023-01-21T20:09:47.405Z,3.59
2023-01-21T20:14:49.089Z,3.58
2023-01-21T20:19:52.134Z,3.57
2023-01-21T20:24:53.786Z,3.55
2023-01-21T20:30:08.594Z,3.57
2023-01-21T20:35:18.807Z,3.66
2023-01-21T20:40:21.849Z,3.68
2023-01-21T20:45:26.226Z,3.61
2023-01-21T20:50:36.262Z,3.57
2023-01-21T20:55:38.517Z,3.56
2023-01-21T21:00:40.425Z,3.60
2023-01-21T21:05:43.574Z,3.58
2023-01-21T21:10:45.443Z,3.58
2023-01-21T21:15:47.153Z,3.56
2023-01-21T21:20:50.159Z,3.47
2023-01-21T21:25:52.217Z,3.45
2023-01-21T21:30:53.901Z,3.37
2023-01-21T21:35:56.946Z,3.31
2023-01-21T21:41:18.629Z,3.15
2023-01-21T21:46:39.059Z,3.12
2023-01-21T21:51:43.512Z,3.06
2023-01-21T21:56:47.161Z,3.03
2023-01-21T22:01:48.868Z,2.98
2023-01-21T22:06:51.950Z,2.96
2023-01-21T22:11:53.690Z,3.03
2023-01-21T22:16:55.436Z,2.99
2023-01-21T22:21:58.459Z,3.04
2023-01-21T22:27:00.184Z,3.04
2023-01-21T22:32:03.732Z,3.05
2023-01-21T22:37:06.759Z,3.01
2023-01-21T22:42:08.474Z,3.00
2023-01-21T22:47:10.370Z,2.98
2023-01-21T22:52:13.401Z,3.02
2023-01-21T22:57:15.231Z,3.04
2023-01-21T23:02:18.261Z,2.92
2023-01-21T23:07:21.283Z,2.93
2023-01-21T23:12:23.070Z,2.91
2023-01-21T23:17:24.897Z,2.84
2023-01-21T23:22:27.900Z,2.87
2023-01-21T23:27:29.561Z,2.84
2023-01-21T23:32:31.306Z,2.78
2023-01-21T23:37:34.468Z,2.75
2023-01-21T23:42:36.159Z,2.67
2023-01-21T23:47:37.795Z,2.59
2023-01-21T23:52:40.889Z,2.63
2023-01-21T23:57:42.565Z,2.68
